createdAt,value
2022-12-20T00:04:46.185Z,100782.94
2022-12-20T00:10:11.087Z,100797.03
2022-12-20T00:15:34.509Z,100784.56
2022-12-20T00:21:01.577Z,100779.06
2022-12-20T00:26:44.947Z,100797.41
2022-12-20T00:32:07.015Z,100794.66
2022-12-20T00:37:29.230Z,100772.03
2022-12-20T00:42:51.832Z,100791.03
2022-12-20T00:48:13.820Z,100781.31
2022-12-20T00:53:37.496Z,100789.03
2022-12-20T00:59:00.793Z,100767.75
2022-12-20T01:04:23.293Z,100794.13
2022-12-20T01:09:45.551Z,100774.59
2022-12-20T01:15:08.906Z,100777.84
2022-12-20T01:20:31.855Z,100759.50
2022-12-20T01:25:54.224Z,100770.50
2022-12-20T01:31:19.097Z,100768.50
2022-12-20T01:36:41.581Z,100766.03
2022-12-20T01:42:04.432Z,100763.03
2022-12-20T01:47:27.683Z,100766.13
2022-12-20T01:52:50.456Z,100770.78
2022-12-20T01:58:15.428Z,100760.03
2022-12-20T02:03:38.084Z,100755.47
2022-12-20T02:09:03.080Z,100757.75
2022-12-20T02:14:43.550Z,100749.69
2022-12-20T02:20:42.093Z,100756.75
2022-12-20T02:26:38.483Z,100755.47
2022-12-20T02:32:15.266Z,100716.50
2022-12-20T02:37:37.713Z,100739.84
2022-12-20T02:43:04.128Z,100720.41
2022-12-20T02:48:31.851Z,100728.78
2022-12-20T02:53:55.026Z,100723.50
2022-12-20T02:59:35.442Z,100724.41
2022-12-20T03:05:00.748Z,100719.13
2022-12-20T03:10:24.708Z,100710.59
2022-12-20T03:15:47.188Z,100725.38
2022-12-20T03:21:12.737Z,100693.13
2022-12-20T03:26:34.958Z,100689.53
2022-12-20T03:31:57.473Z,100692.84
2022-12-20T03:37:19.778Z,100678.50
2022-12-20T03:42:42.744Z,100691.09
2022-12-20T03:48:05.223Z,100701.28
2022-12-20T03:53:34.530Z,100672.28
2022-12-20T03:59:03.012Z,100665.47
2022-12-20T04:04:26.392Z,100658.00
2022-12-20T04:09:48.886Z,100628.94
2022-12-20T04:15:12.241Z,100660.63
2022-12-20T04:20:39.722Z,100638.44
2022-12-20T04:26:12.082Z,100635.53
2022-12-20T04:31:34.839Z,100638.88
2022-12-20T04:36:57.039Z,100646.50
2022-12-20T04:42:29.901Z,100650.94
2022-12-20T04:47:52.993Z,100639.22
2022-12-20T04:53:40.397Z,100644.94
2022-12-20T04:59:04.123Z,100639.00
2022-12-20T05:04:29.086Z,100628.41
2022-12-20T05:09:55.751Z,100643.16
2022-12-20T05:15:18.363Z,100641.16
2022-12-20T05:20:40.146Z,100617.28
2022-12-20T05:26:18.232Z,100628.97
2022-12-20T05:31:41.388Z,100632.25
2022-12-20T05:37:04.173Z,100619.88
2022-12-20T05:42:29.796Z,100626.59
2022-12-20T05:47:51.893Z,100629.22
2022-12-20T05:53:16.207Z,100632.94
2022-12-20T05:58:44.865Z,100631.56
2022-12-20T06:04:07.242Z,100621.81
2022-12-20T06:09:31.090Z,100607.81
2022-12-20T06:15:01.538Z,100611.03
2022-12-20T06:20:25.795Z,100594.28
2022-12-20T06:25:49.207Z,100601.06
2022-12-20T06:31:12.078Z,100594.34
2022-12-20T06:36:41.425Z,100565.47
2022-12-20T06:42:09.114Z,100562.22
2022-12-20T06:47:33.747Z,100564.28
2022-12-20T06:52:57.239Z,100575.13
2022-12-20T06:58:20.988Z,100569.22
2022-12-20T07:03:44.207Z,100563.31
2022-12-20T07:09:09.768Z,100575.59
2022-12-20T07:14:31.967Z,100546.69
2022-12-20T07:19:54.275Z,100550.25
2022-12-20T07:25:18.940Z,100521.31
2022-12-20T07:30:42.284Z,100534.16
2022-12-20T07:36:11.348Z,100555.97
2022-12-20T07:41:38.065Z,100531.09
2022-12-20T07:47:03.352Z,100536.03
2022-12-20T07:52:31.744Z,100503.50
2022-12-20T07:58:01.350Z,100504.38
2022-12-20T08:03:32.376Z,100501.34
2022-12-20T08:08:59.914Z,100486.91
2022-12-20T08:14:25.008Z,100476.38
2022-12-20T08:19:48.254Z,100487.78
2022-12-20T08:25:12.485Z,100450.50
2022-12-20T08:30:34.735Z,100452.72
2022-12-20T08:36:03.726Z,100469.81
2022-12-20T08:41:26.004Z,100466.56
2022-12-20T08:46:50.296Z,100444.56
2022-12-20T08:52:12.926Z,100444.56
2022-12-20T08:57:35.795Z,100446.63
2022-12-20T09:03:00.968Z,100432.00
2022-12-20T09:08:23.664Z,100415.94
2022-12-20T09:13:48.114Z,100410.03
2022-12-20T09:19:14.735Z,100411.66
2022-12-20T09:24:38.733Z,100408.81
2022-12-20T09:30:01.231Z,100400.47
2022-12-20T09:35:23.814Z,100393.75
2022-12-20T09:40:49.004Z,100400.66
2022-12-20T09:46:15.972Z,100382.75
2022-12-20T09:51:50.249Z,100381.72
2022-12-20T09:57:50.356Z,100382.72
2022-12-20T10:03:34.296Z,100370.09
2022-12-20T10:09:25.003Z,100362.78
2022-12-20T10:15:15.424Z,100349.38
2022-12-20T10:21:16.797Z,100341.63
2022-12-20T10:26:39.254Z,100320.84
2022-12-20T10:32:03.144Z,100320.03
2022-12-20T10:37:25.222Z,100299.47
2022-12-20T10:42:47.813Z,100283.28
2022-12-20T10:48:32.155Z,100288.97
2022-12-20T10:54:20.832Z,100278.22
2022-12-20T11:00:04.582Z,100287.53
2022-12-20T11:05:28.333Z,100284.66
2022-12-20T11:10:52.304Z,100270.41
2022-12-20T11:16:28.364Z,100263.97
2022-12-20T11:22:13.205Z,100261.31
2022-12-20T11:27:52.673Z,100256.81
2022-12-20T11:33:32.944Z,100263.88
2022-12-20T11:39:25.751Z,100242.31
2022-12-20T11:45:08.452Z,100241.69
2022-12-20T11:50:37.412Z,100236.78
2022-12-20T11:56:09.415Z,100242.81
2022-12-20T12:02:03.597Z,100244.25
2022-12-20T12:07:31.512Z,100227.59
2022-12-20T12:13:27.891Z,100225.53
2022-12-20T12:18:50.118Z,100206.63
2022-12-20T12:24:21.211Z,100224.97
2022-12-20T12:29:46.227Z,100208.91
2022-12-20T12:35:50.154Z,100189.56
2022-12-20T12:41:18.206Z,100208.31
2022-12-20T12:46:41.579Z,100197.06
2022-12-20T12:52:07.666Z,100204.63
2022-12-20T12:57:59.675Z,100217.78
2022-12-20T13:03:50.251Z,100199.72
2022-12-20T13:09:36.930Z,100203.56
2022-12-20T13:15:22.489Z,100189.44
2022-12-20T13:21:30.212Z,100214.84
2022-12-20T13:26:54.205Z,100216.63
2022-12-20T13:32:51.692Z,100218.84
2022-12-20T13:38:48.596Z,100211.91
2022-12-20T13:44:25.025Z,100197.16
2022-12-20T13:49:48.198Z,100191.44
2022-12-20T13:55:24.301Z,100171.09
2022-12-20T14:00:48.312Z,100188.38
2022-12-20T14:06:12.514Z,100197.91
2022-12-20T14:11:46.992Z,100181.56
2022-12-20T14:17:31.760Z,100196.22
2022-12-20T14:23:12.117Z,100190.06
2022-12-20T14:28:38.661Z,100197.53
2022-12-20T14:34:13.464Z,100199.47
2022-12-20T14:39:38.521Z,100171.91
2022-12-20T14:45:17.783Z,100191.63
2022-12-20T14:50:57.695Z,100165.50
2022-12-20T14:56:28.059Z,100170.59
2022-12-20T15:01:54.582Z,100187.56
2022-12-20T15:07:37.171Z,100146.56
2022-12-20T15:13:02.921Z,100193.03
2022-12-20T15:18:26.373Z,100169.22
2022-12-20T15:29:41.433Z,100180.72
2022-12-20T15:35:04.558Z,100205.97
2022-12-20T15:40:26.673Z,100183.47
2022-12-20T15:45:53.403Z,100192.25
2022-12-20T15:51:22.504Z,100197.59
2022-12-20T15:56:44.419Z,100178.97
2022-12-20T16:02:28.208Z,100169.69
2022-12-20T16:07:50.262Z,100181.47
2022-12-20T16:13:23.677Z,100203.00
2022-12-20T16:18:46.110Z,100179.69
2022-12-20T16:24:34.057Z,100197.97
2022-12-20T16:29:58.276Z,100180.28
2022-12-20T16:35:28.685Z,100188.44
2022-12-20T16:40:51.017Z,100177.38
2022-12-20T16:46:15.154Z,100178.38
2022-12-20T16:51:45.116Z,100180.69
2022-12-20T16:57:06.994Z,100182.50
2022-12-20T17:02:33.220Z,100183.47
2022-12-20T17:07:55.696Z,100162.88
2022-12-20T17:13:17.362Z,100162.19
2022-12-20T17:18:41.344Z,100182.38
2022-12-20T17:24:19.728Z,100182.75
2022-12-20T17:29:43.012Z,100148.22
2022-12-20T17:35:24.891Z,100181.56
2022-12-20T17:40:47.692Z,100158.47
2022-12-20T17:46:10.157Z,100174.31
2022-12-20T17:51:32.591Z,100160.41
2022-12-20T17:56:57.693Z,100178.53
2022-12-20T18:02:25.806Z,100178.53
2022-12-20T18:07:55.358Z,100158.22
2022-12-20T18:13:18.664Z,100197.16
2022-12-20T18:18:42.031Z,100175.00
2022-12-20T18:29:40.304Z,100186.84
2022-12-20T18:35:02.445Z,100172.09
2022-12-20T18:40:26.219Z,100177.66
2022-12-20T18:45:48.463Z,100188.38
2022-12-20T18:51:16.472Z,100188.59
2022-12-20T18:56:39.454Z,100189.28
2022-12-20T19:02:01.675Z,100176.63
2022-12-20T19:07:23.561Z,100165.38
2022-12-20T19:12:45.706Z,100179.94
2022-12-20T19:18:07.630Z,100193.03
2022-12-20T19:23:30.503Z,100187.47
2022-12-20T19:28:52.885Z,100166.91
2022-12-20T19:34:18.678Z,100163.50
2022-12-20T19:39:40.614Z,100180.19
2022-12-20T19:45:04.023Z,100181.50
2022-12-20T19:50:28.208Z,100166.63
2022-12-20T19:55:54.145Z,100196.72
2022-12-20T20:01:18.440Z,100199.31
2022-12-20T20:06:43.330Z,100189.69
2022-12-20T20:12:06.076Z,100181.50
2022-12-20T20:17:30.881Z,100200.63
2022-12-20T20:22:55.940Z,100222.50
2022-12-20T20:28:18.856Z,100209.41
2022-12-20T20:33:40.794Z,100207.13
2022-12-20T20:39:02.770Z,100206.63
2022-12-20T20:44:24.494Z,100222.97
2022-12-20T20:49:47.709Z,100214.69
2022-12-20T20:55:10.812Z,100226.75
2022-12-20T21:00:33.417Z,100226.59
2022-12-20T21:11:38.428Z,100234.13
2022-12-20T21:17:00.842Z,100243.75
2022-12-20T21:22:22.722Z,100238.84
2022-12-20T21:27:44.570Z,100252.56
2022-12-20T21:33:07.063Z,100247.28
2022-12-20T21:38:29.557Z,100239.81
2022-12-20T21:43:55.223Z,100253.19
2022-12-20T21:56:28.773Z,100246.19
2022-12-20T22:01:51.050Z,100252.56
2022-12-20T22:07:13.298Z,100242.59
2022-12-20T22:12:34.913Z,100263.66
2022-12-20T22:17:57.083Z,100282.13
2022-12-20T22:23:19.243Z,100278.69
2022-12-20T22:28:47.491Z,100248.81
2022-12-20T22:34:09.913Z,100271.50
2022-12-20T22:39:34.833Z,100278.69
2022-12-20T22:44:57.201Z,100296.66
2022-12-20T22:50:21.423Z,100295.50
2022-12-20T22:55:43.441Z,100300.50
2022-12-20T23:01:12.455Z,100271.09
2022-12-20T23:06:34.684Z,100274.50
2022-12-20T23:12:17.303Z,100298.56
2022-12-20T23:17:39.285Z,100259.28
2022-12-20T23:23:01.860Z,100268.94
2022-12-20T23:28:29.820Z,100291.22
2022-12-20T23:33:51.963Z,100295.00
2022-12-20T23:39:14.707Z,100293.06
2022-12-20T23:44:38.305Z,100293.69
2022-12-20T23:50:08.725Z,100298.59
2022-12-20T23:55:31.406Z,100288.94
